sensor_id;sensor_type;location;lat;lon;timestamp;temperature;humidity
9305;DHT22;4690;52.422;13.486;2024-03-08T00:08:10;0.70;99.90
9305;DHT22;4690;52.422;13.486;2024-03-08T00:10:36;0.70;99.90
9305;DHT22;4690;52.422;13.486;2024-03-08T00:13:04;0.60;99.90
9305;DHT22;4690;52.422;13.486;2024-03-08T00:15:30;0.60;99.90
9305;DHT22;4690;52.422;13.486;2024-03-08T00:17:57;0.60;99.90
9305;DHT22;4690;52.422;13.486;2024-03-08T00:20:23;0.50;99.90
9305;DHT22;4690;52.422;13.486;2024-03-08T00:22:49;0.50;99.90
9305;DHT22;4690;52.422;13.486;2024-03-08T00:25:15;0.50;99.90
9305;DHT22;4690;52.422;13.486;2024-03-08T00:27:41;0.50;99.90
9305;DHT22;4690;52.422;13.486;2024-03-08T00:30:07;0.50;99.90
9305;DHT22;4690;52.422;13.486;2024-03-08T00:32:33;0.40;99.90
9305;DHT22;4690;52.422;13.486;2024-03-08T00:34:59;0.40;99.90
9305;DHT22;4690;52.422;13.486;2024-03-08T00:37:25;0.30;99.90
9305;DHT22;4690;52.422;13.486;2024-03-08T00:39:51;0.30;99.90
9305;DHT22;4690;52.422;13.486;2024-03-08T00:42:19;0.30;99.90
9305;DHT22;4690;52.422;13.486;2024-03-08T00:44:46;0.30;99.90
9305;DHT22;4690;52.422;13.486;2024-03-08T00:47:13;0.20;99.90
9305;DHT22;4690;52.422;13.486;2024-03-08T00:49:41;0.20;99.90
9305;DHT22;4690;52.422;13.486;2024-03-08T00:52:07;0.20;99.90
9305;DHT22;4690;52.422;13.486;2024-03-08T00:54:34;0.20;99.90
9305;DHT22;4690;52.422;13.486;2024-03-08T00:57:03;0.20;99.90
9305;DHT22;4690;52.422;13.486;2024-03-08T00:59:30;0.20;99.90
9305;DHT22;4690;52.422;13.486;2024-03-08T01:01:58;0.20;99.90
9305;DHT22;4690;52.422;13.486;2024-03-08T01:04:25;0.20;99.90
9305;DHT22;4690;52.422;13.486;2024-03-08T01:06:57;0.20;99.90
9305;DHT22;4690;52.422;13.486;2024-03-08T01:09:24;0.20;99.90
9305;DHT22;4690;52.422;13.486;2024-03-08T01:11:50;0.20;99.90
9305;DHT22;4690;52.422;13.486;2024-03-08T01:14:16;0.20;99.90
9305;DHT22;4690;52.422;13.486;2024-03-08T01:16:42;0.10;99.90
9305;DHT22;4690;52.422;13.486;2024-03-08T01:19:08;0.10;99.90
9305;DHT22;4690;52.422;13.486;2024-03-08T01:21:34;0.00;99.90
9305;DHT22;4690;52.422;13.486;2024-03-08T01:24:00;0.10;99.90
9305;DHT22;4690;52.422;13.486;2024-03-08T01:26:25;0.10;99.90
9305;DHT22;4690;52.422;13.486;2024-03-08T01:28:51;0.10;99.90
9305;DHT22;4690;52.422;13.486;2024-03-08T01:31:17;0.00;99.90
9305;DHT22;4690;52.422;13.486;2024-03-08T01:33:43;0.00;99.90
9305;DHT22;4690;52.422;13.486;2024-03-08T01:36:08;0.00;99.90
9305;DHT22;4690;52.422;13.486;2024-03-08T01:38:34;0.00;99.90
9305;DHT22;4690;52.422;13.486;2024-03-08T01:41:01;0.00;99.90
9305;DHT22;4690;52.422;13.486;2024-03-08T01:43:28;0.00;99.90
9305;DHT22;4690;52.422;13.486;2024-03-08T01:45:56;0.00;99.90
9305;DHT22;4690;52.422;13.486;2024-03-08T01:48:25;-0.10;99.90
9305;DHT22;4690;52.422;13.486;2024-03-08T01:50:54;-0.10;99.90
9305;DHT22;4690;52.422;13.486;2024-03-08T01:53:22;-0.10;99.90
9305;DHT22;4690;52.422;13.486;2024-03-08T01:55:50;-0.10;99.90
9305;DHT22;4690;52.422;13.486;2024-03-08T01:58:19;-0.10;99.90
9305;DHT22;4690;52.422;13.486;2024-03-08T02:00:48;-0.20;99.90
9305;DHT22;4690;52.422;13.486;2024-03-08T02:03:15;-0.20;99.90
9305;DHT22;4690;52.422;13.486;2024-03-08T02:05:41;-0.20;99.90
9305;DHT22;4690;52.422;13.486;2024-03-08T02:08:09;-0.20;99.90
9305;DHT22;4690;52.422;13.486;2024-03-08T02:10:40;-0.20;99.90
9305;DHT22;4690;52.422;13.486;2024-03-08T02:13:10;-0.20;99.90
9305;DHT22;4690;52.422;13.486;2024-03-08T02:15:57;-0.30;99.90
9305;DHT22;4690;52.422;13.486;2024-03-08T02:18:30;-0.30;99.90
9305;DHT22;4690;52.422;13.486;2024-03-08T02:21:01;-0.30;99.90
9305;DHT22;4690;52.422;13.486;2024-03-08T02:23:28;-0.30;99.90
9305;DHT22;4690;52.422;13.486;2024-03-08T02:25:56;-0.30;99.90
9305;DHT22;4690;52.422;13.486;2024-03-08T02:28:23;-0.30;99.90
9305;DHT22;4690;52.422;13.486;2024-03-08T02:30:51;-0.30;99.90
9305;DHT22;4690;52.422;13.486;2024-03-08T02:33:20;-0.40;99.90
9305;DHT22;4690;52.422;13.486;2024-03-08T02:35:47;-0.40;99.90
9305;DHT22;4690;52.422;13.486;2024-03-08T02:38:14;-0.40;99.90
9305;DHT22;4690;52.422;13.486;2024-03-08T02:40:46;-0.40;99.90
9305;DHT22;4690;52.422;13.486;2024-03-08T02:43:14;-0.40;99.90
9305;DHT22;4690;52.422;13.486;2024-03-08T02:45:41;-0.40;99.90
9305;DHT22;4690;52.422;13.486;2024-03-08T02:48:08;-0.40;99.90
9305;DHT22;4690;52.422;13.486;2024-03-08T02:50:34;-0.40;99.90
9305;DHT22;4690;52.422;13.486;2024-03-08T02:53:02;-0.40;99.90
9305;DHT22;4690;52.422;13.486;2024-03-08T02:55:28;-0.50;99.90
9305;DHT22;4690;52.422;13.486;2024-03-08T02:57:54;-0.40;99.90
9305;DHT22;4690;52.422;13.486;2024-03-08T03:00:21;-0.40;99.90
9305;DHT22;4690;52.422;13.486;2024-03-08T03:02:48;-0.40;99.90
9305;DHT22;4690;52.422;13.486;2024-03-08T03:05:19;-0.40;99.90
9305;DHT22;4690;52.422;13.486;2024-03-08T03:07:46;-0.40;99.90
9305;DHT22;4690;52.422;13.486;2024-03-08T03:10:12;-0.50;99.90
9305;DHT22;4690;52.422;13.486;2024-03-08T03:12:37;-0.40;99.90
9305;DHT22;4690;52.422;13.486;2024-03-08T03:15:04;-0.50;99.90
9305;DHT22;4690;52.422;13.486;2024-03-08T03:17:32;-0.40;99.90
9305;DHT22;4690;52.422;13.486;2024-03-08T03:19:57;-0.40;99.90
9305;DHT22;4690;52.422;13.486;2024-03-08T03:22:23;-0.50;99.90
9305;DHT22;4690;52.422;13.486;2024-03-08T03:24:50;-0.50;99.90
9305;DHT22;4690;52.422;13.486;2024-03-08T03:27:17;-0.50;99.90
9305;DHT22;4690;52.422;13.486;2024-03-08T03:29:43;-0.40;99.90
9305;DHT22;4690;52.422;13.486;2024-03-08T03:32:13;-0.40;99.90
9305;DHT22;4690;52.422;13.486;2024-03-08T03:34:39;-0.50;99.90
9305;DHT22;4690;52.422;13.486;2024-03-08T03:37:05;-0.50;99.90
9305;DHT22;4690;52.422;13.486;2024-03-08T03:39:38;-0.50;99.90
9305;DHT22;4690;52.422;13.486;2024-03-08T03:42:19;-0.50;99.90
9305;DHT22;4690;52.422;13.486;2024-03-08T03:44:48;-0.50;99.90
9305;DHT22;4690;52.422;13.486;2024-03-08T03:47:15;-0.60;99.90
9305;DHT22;4690;52.422;13.486;2024-03-08T03:49:41;-0.60;99.90
9305;DHT22;4690;52.422;13.486;2024-03-08T03:52:08;-0.60;99.90
9305;DHT22;4690;52.422;13.486;2024-03-08T03:54:34;-0.60;99.90
9305;DHT22;4690;52.422;13.486;2024-03-08T03:57:00;-0.70;99.90
9305;DHT22;4690;52.422;13.486;2024-03-08T03:59:26;-0.60;99.90
9305;DHT22;4690;52.422;13.486;2024-03-08T04:01:53;-0.70;99.90
9305;DHT22;4690;52.422;13.486;2024-03-08T04:04:20;-0.70;99.90
9305;DHT22;4690;52.422;13.486;2024-03-08T04:06:46;-0.70;99.90
9305;DHT22;4690;52.422;13.486;2024-03-08T04:09:13;-0.70;99.90
9305;DHT22;4690;52.422;13.486;2024-03-08T04:11:39;-0.70;99.90
9305;DHT22;4690;52.422;13.486;2024-03-08T04:14:06;-0.70;99.90
9305;DHT22;4690;52.422;13.486;2024-03-08T04:16:32;-0.70;99.90
9305;DHT22;4690;52.422;13.486;2024-03-08T04:18:58;-0.70;99.90
9305;DHT22;4690;52.422;13.486;2024-03-08T04:21:24;-0.80;99.90
9305;DHT22;4690;52.422;13.486;2024-03-08T04:23:50;-0.80;99.90
9305;DHT22;4690;52.422;13.486;2024-03-08T04:26:16;-0.80;99.90
9305;DHT22;4690;52.422;13.486;2024-03-08T04:28:41;-0.70;99.90
9305;DHT22;4690;52.422;13.486;2024-03-08T04:31:07;-0.80;99.90
9305;DHT22;4690;52.422;13.486;2024-03-08T04:33:33;-0.80;99.90
9305;DHT22;4690;52.422;13.486;2024-03-08T04:36:01;-0.80;99.90
9305;DHT22;4690;52.422;13.486;2024-03-08T04:38:29;-0.80;99.90
9305;DHT22;4690;52.422;13.486;2024-03-08T04:40:57;-0.80;99.90
9305;DHT22;4690;52.422;13.486;2024-03-08T04:43:23;-0.80;99.90
9305;DHT22;4690;52.422;13.486;2024-03-08T04:45:52;-0.80;99.90
9305;DHT22;4690;52.422;13.486;2024-03-08T04:48:19;-0.80;99.90
9305;DHT22;4690;52.422;13.486;2024-03-08T04:50:46;-0.80;99.90
9305;DHT22;4690;52.422;13.486;2024-03-08T04:53:11;-0.80;99.90
9305;DHT22;4690;52.422;13.486;2024-03-08T04:55:37;-0.80;99.90
9305;DHT22;4690;52.422;13.486;2024-03-08T04:58:03;-0.80;99.90
9305;DHT22;4690;52.422;13.486;2024-03-08T05:00:32;-0.80;99.90
9305;DHT22;4690;52.422;13.486;2024-03-08T05:02:58;-0.70;99.90
9305;DHT22;4690;52.422;13.486;2024-03-08T05:05:24;-0.70;99.90
9305;DHT22;4690;52.422;13.486;2024-03-08T05:07:51;-0.70;99.90
9305;DHT22;4690;52.422;13.486;2024-03-08T05:10:17;-0.70;99.90
9305;DHT22;4690;52.422;13.486;2024-03-08T05:12:44;-0.70;99.90
9305;DHT22;4690;52.422;13.486;2024-03-08T05:15:10;-0.70;99.90
9305;DHT22;4690;52.422;13.486;2024-03-08T05:17:36;-0.70;99.90
9305;DHT22;4690;52.422;13.486;2024-03-08T05:20:02;-0.80;99.90
9305;DHT22;4690;52.422;13.486;2024-03-08T05:22:29;-0.80;99.90
9305;DHT22;4690;52.422;13.486;2024-03-08T05:24:55;-0.80;99.90
9305;DHT22;4690;52.422;13.486;2024-03-08T05:27:21;-0.90;99.90
9305;DHT22;4690;52.422;13.486;2024-03-08T05:29:46;-0.90;99.90
9305;DHT22;4690;52.422;13.486;2024-03-08T05:32:13;-0.90;99.90
9305;DHT22;4690;52.422;13.486;2024-03-08T05:34:39;-0.90;99.90
9305;DHT22;4690;52.422;13.486;2024-03-08T05:37:05;-0.90;99.90
9305;DHT22;4690;52.422;13.486;2024-03-08T05:39:32;-1.00;99.90
9305;DHT22;4690;52.422;13.486;2024-03-08T05:41:58;-0.90;99.90
9305;DHT22;4690;52.422;13.486;2024-03-08T05:44:24;-0.90;99.90
9305;DHT22;4690;52.422;13.486;2024-03-08T05:46:49;-0.80;99.90
9305;DHT22;4690;52.422;13.486;2024-03-08T05:49:16;-0.90;99.90
9305;DHT22;4690;52.422;13.486;2024-03-08T05:51:42;-0.90;99.90
9305;DHT22;4690;52.422;13.486;2024-03-08T05:54:09;-0.80;99.90
9305;DHT22;4690;52.422;13.486;2024-03-08T05:56:37;-0.80;99.90
9305;DHT22;4690;52.422;13.486;2024-03-08T05:59:04;-0.80;99.90
9305;DHT22;4690;52.422;13.486;2024-03-08T06:01:30;-0.80;99.90
9305;DHT22;4690;52.422;13.486;2024-03-08T06:03:56;-0.80;99.90
9305;DHT22;4690;52.422;13.486;2024-03-08T06:06:23;-0.80;99.90
9305;DHT22;4690;52.422;13.486;2024-03-08T06:08:50;-0.70;99.90
9305;DHT22;4690;52.422;13.486;2024-03-08T06:11:17;-0.70;99.90
9305;DHT22;4690;52.422;13.486;2024-03-08T06:13:44;-0.70;99.90
9305;DHT22;4690;52.422;13.486;2024-03-08T06:16:10;-0.70;99.90
9305;DHT22;4690;52.422;13.486;2024-03-08T06:18:37;-0.70;99.90
9305;DHT22;4690;52.422;13.486;2024-03-08T06:21:04;-0.60;99.90
9305;DHT22;4690;52.422;13.486;2024-03-08T06:23:35;-0.50;99.90
9305;DHT22;4690;52.422;13.486;2024-03-08T06:26:04;-0.30;99.90
9305;DHT22;4690;52.422;13.486;2024-03-08T06:28:30;-0.10;99.90
9305;DHT22;4690;52.422;13.486;2024-03-08T06:30:58;0.20;99.90
9305;DHT22;4690;52.422;13.486;2024-03-08T06:33:24;0.40;99.90
9305;DHT22;4690;52.422;13.486;2024-03-08T06:35:54;0.60;99.90
9305;DHT22;4690;52.422;13.486;2024-03-08T06:38:23;0.80;99.90
9305;DHT22;4690;52.422;13.486;2024-03-08T06:40:50;0.90;99.90
9305;DHT22;4690;52.422;13.486;2024-03-08T06:43:17;1.10;99.90
9305;DHT22;4690;52.422;13.486;2024-03-08T06:45:44;1.30;99.90
9305;DHT22;4690;52.422;13.486;2024-03-08T06:48:18;1.50;99.90
9305;DHT22;4690;52.422;13.486;2024-03-08T06:50:45;1.60;99.90
9305;DHT22;4690;52.422;13.486;2024-03-08T06:53:12;1.80;99.90
9305;DHT22;4690;52.422;13.486;2024-03-08T06:55:39;1.90;99.90
9305;DHT22;4690;52.422;13.486;2024-03-08T06:58:05;1.90;99.90
9305;DHT22;4690;52.422;13.486;2024-03-08T07:00:32;2.20;99.90
9305;DHT22;4690;52.422;13.486;2024-03-08T07:02:59;2.50;99.90
9305;DHT22;4690;52.422;13.486;2024-03-08T07:05:28;2.70;99.90
9305;DHT22;4690;52.422;13.486;2024-03-08T07:07:55;2.70;99.90
9305;DHT22;4690;52.422;13.486;2024-03-08T07:10:22;3.10;99.90
9305;DHT22;4690;52.422;13.486;2024-03-08T07:12:51;2.90;99.90
9305;DHT22;4690;52.422;13.486;2024-03-08T07:15:18;3.10;99.90
9305;DHT22;4690;52.422;13.486;2024-03-08T07:17:45;3.40;99.90
9305;DHT22;4690;52.422;13.486;2024-03-08T07:20:12;3.30;99.90
9305;DHT22;4690;52.422;13.486;2024-03-08T07:22:39;3.20;99.90
9305;DHT22;4690;52.422;13.486;2024-03-08T07:25:06;3.60;99.90
9305;DHT22;4690;52.422;13.486;2024-03-08T07:27:35;3.70;99.90
9305;DHT22;4690;52.422;13.486;2024-03-08T07:30:05;3.80;99.90
9305;DHT22;4690;52.422;13.486;2024-03-08T07:32:31;3.80;99.90
9305;DHT22;4690;52.422;13.486;2024-03-08T07:34:57;4.10;99.90
9305;DHT22;4690;52.422;13.486;2024-03-08T07:37:24;4.10;99.90
9305;DHT22;4690;52.422;13.486;2024-03-08T07:39:49;3.90;99.90
9305;DHT22;4690;52.422;13.486;2024-03-08T07:42:15;3.90;99.90
9305;DHT22;4690;52.422;13.486;2024-03-08T07:44:42;3.70;99.90
9305;DHT22;4690;52.422;13.486;2024-03-08T07:47:08;3.70;99.90
9305;DHT22;4690;52.422;13.486;2024-03-08T07:49:35;3.90;99.90
9305;DHT22;4690;52.422;13.486;2024-03-08T07:52:03;4.40;99.90
9305;DHT22;4690;52.422;13.486;2024-03-08T07:54:30;4.50;99.90
9305;DHT22;4690;52.422;13.486;2024-03-08T07:56:56;4.70;99.90
9305;DHT22;4690;52.422;13.486;2024-03-08T07:59:22;4.50;99.90
9305;DHT22;4690;52.422;13.486;2024-03-08T08:01:48;4.30;99.90
9305;DHT22;4690;52.422;13.486;2024-03-08T08:04:14;4.20;99.90
9305;DHT22;4690;52.422;13.486;2024-03-08T08:06:40;4.20;99.90
9305;DHT22;4690;52.422;13.486;2024-03-08T08:09:09;4.10;99.90
9305;DHT22;4690;52.422;13.486;2024-03-08T08:11:41;4.50;99.90
9305;DHT22;4690;52.422;13.486;2024-03-08T08:14:09;4.50;99.90
9305;DHT22;4690;52.422;13.486;2024-03-08T08:16:36;4.70;99.90
9305;DHT22;4690;52.422;13.486;2024-03-08T08:19:03;4.90;99.90
9305;DHT22;4690;52.422;13.486;2024-03-08T08:21:36;5.30;99.90
9305;DHT22;4690;52.422;13.486;2024-03-08T08:24:03;5.70;99.90
9305;DHT22;4690;52.422;13.486;2024-03-08T08:26:29;5.60;99.90
9305;DHT22;4690;52.422;13.486;2024-03-08T08:28:56;5.40;99.90
9305;DHT22;4690;52.422;13.486;2024-03-08T08:31:21;5.80;99.90
9305;DHT22;4690;52.422;13.486;2024-03-08T08:33:47;6.00;99.90
9305;DHT22;4690;52.422;13.486;2024-03-08T08:36:17;6.00;99.90
9305;DHT22;4690;52.422;13.486;2024-03-08T08:38:44;6.20;99.90
9305;DHT22;4690;52.422;13.486;2024-03-08T08:41:10;6.00;99.90
9305;DHT22;4690;52.422;13.486;2024-03-08T08:43:36;6.10;99.90
9305;DHT22;4690;52.422;13.486;2024-03-08T08:46:02;6.30;99.90
9305;DHT22;4690;52.422;13.486;2024-03-08T08:48:28;6.30;99.90
9305;DHT22;4690;52.422;13.486;2024-03-08T08:50:56;6.50;99.90
9305;DHT22;4690;52.422;13.486;2024-03-08T08:53:22;6.60;99.90
9305;DHT22;4690;52.422;13.486;2024-03-08T08:55:48;6.80;99.90
9305;DHT22;4690;52.422;13.486;2024-03-08T08:58:13;6.60;99.90
9305;DHT22;4690;52.422;13.486;2024-03-08T09:00:39;6.90;99.90
9305;DHT22;4690;52.422;13.486;2024-03-08T09:03:05;6.70;99.90
9305;DHT22;4690;52.422;13.486;2024-03-08T09:05:35;6.50;99.90
9305;DHT22;4690;52.422;13.486;2024-03-08T09:08:01;6.50;99.90
9305;DHT22;4690;52.422;13.486;2024-03-08T09:10:28;6.70;99.90
9305;DHT22;4690;52.422;13.486;2024-03-08T09:12:54;7.20;99.90
9305;DHT22;4690;52.422;13.486;2024-03-08T09:15:20;7.20;99.90
9305;DHT22;4690;52.422;13.486;2024-03-08T09:17:46;7.00;99.90
9305;DHT22;4690;52.422;13.486;2024-03-08T09:20:14;6.90;99.90
9305;DHT22;4690;52.422;13.486;2024-03-08T09:22:43;7.20;99.90
9305;DHT22;4690;52.422;13.486;2024-03-08T09:25:10;7.30;99.90
9305;DHT22;4690;52.422;13.486;2024-03-08T09:27:35;7.00;99.90
9305;DHT22;4690;52.422;13.486;2024-03-08T09:30:02;6.90;99.90
9305;DHT22;4690;52.422;13.486;2024-03-08T09:32:27;6.90;99.90
9305;DHT22;4690;52.422;13.486;2024-03-08T09:34:53;6.90;99.90
9305;DHT22;4690;52.422;13.486;2024-03-08T09:37:19;6.60;99.90
9305;DHT22;4690;52.422;13.486;2024-03-08T09:39:45;6.50;99.90
9305;DHT22;4690;52.422;13.486;2024-03-08T09:42:11;6.40;99.90
9305;DHT22;4690;52.422;13.486;2024-03-08T09:44:44;6.40;99.90
9305;DHT22;4690;52.422;13.486;2024-03-08T09:47:13;6.80;99.90
9305;DHT22;4690;52.422;13.486;2024-03-08T09:49:40;6.80;99.90
9305;DHT22;4690;52.422;13.486;2024-03-08T09:52:07;6.80;99.90
9305;DHT22;4690;52.422;13.486;2024-03-08T09:54:33;6.90;99.90
9305;DHT22;4690;52.422;13.486;2024-03-08T09:57:00;6.70;99.90
9305;DHT22;4690;52.422;13.486;2024-03-08T09:59:29;6.70;99.90
9305;DHT22;4690;52.422;13.486;2024-03-08T10:02:01;6.50;99.90
9305;DHT22;4690;52.422;13.486;2024-03-08T10:04:28;6.70;99.90
9305;DHT22;4690;52.422;13.486;2024-03-08T10:06:58;6.70;99.90
9305;DHT22;4690;52.422;13.486;2024-03-08T10:09:26;6.80;99.90
9305;DHT22;4690;52.422;13.486;2024-03-08T10:11:59;7.00;99.90
9305;DHT22;4690;52.422;13.486;2024-03-08T10:14:25;7.10;99.90
9305;DHT22;4690;52.422;13.486;2024-03-08T10:16:54;7.00;99.90
9305;DHT22;4690;52.422;13.486;2024-03-08T10:19:25;7.00;99.90
9305;DHT22;4690;52.422;13.486;2024-03-08T10:21:52;6.90;99.90
9305;DHT22;4690;52.422;13.486;2024-03-08T10:24:24;6.80;99.90
9305;DHT22;4690;52.422;13.486;2024-03-08T10:27:09;6.70;99.90
9305;DHT22;4690;52.422;13.486;2024-03-08T10:29:35;7.10;99.90
9305;DHT22;4690;52.422;13.486;2024-03-08T10:32:01;7.30;99.90
9305;DHT22;4690;52.422;13.486;2024-03-08T10:34:27;7.20;99.90
9305;DHT22;4690;52.422;13.486;2024-03-08T10:37:01;6.90;99.90
9305;DHT22;4690;52.422;13.486;2024-03-08T10:39:34;7.00;99.90
9305;DHT22;4690;52.422;13.486;2024-03-08T10:42:03;7.10;99.90
9305;DHT22;4690;52.422;13.486;2024-03-08T10:47:18;7.30;99.90
9305;DHT22;4690;52.422;13.486;2024-03-08T10:50:03;7.40;99.90
9305;DHT22;4690;52.422;13.486;2024-03-08T10:52:32;7.40;99.90
9305;DHT22;4690;52.422;13.486;2024-03-08T10:55:01;7.60;99.90
9305;DHT22;4690;52.422;13.486;2024-03-08T10:57:27;7.60;99.90
9305;DHT22;4690;52.422;13.486;2024-03-08T10:59:55;7.70;99.90
9305;DHT22;4690;52.422;13.486;2024-03-08T11:02:23;8.00;99.90
9305;DHT22;4690;52.422;13.486;2024-03-08T11:04:52;8.30;99.90
9305;DHT22;4690;52.422;13.486;2024-03-08T11:07:21;8.20;99.90
9305;DHT22;4690;52.422;13.486;2024-03-08T11:09:48;8.30;99.90
9305;DHT22;4690;52.422;13.486;2024-03-08T11:12:36;8.70;99.90
9305;DHT22;4690;52.422;13.486;2024-03-08T11:15:12;8.60;99.90
9305;DHT22;4690;52.422;13.486;2024-03-08T11:17:48;9.20;99.90
9305;DHT22;4690;52.422;13.486;2024-03-08T11:20:18;9.50;99.90
9305;DHT22;4690;52.422;13.486;2024-03-08T11:22:53;9.30;99.90
9305;DHT22;4690;52.422;13.486;2024-03-08T11:25:32;9.30;99.90
9305;DHT22;4690;52.422;13.486;2024-03-08T11:30:46;9.50;99.90
9305;DHT22;4690;52.422;13.486;2024-03-08T11:33:16;9.80;99.90
9305;DHT22;4690;52.422;13.486;2024-03-08T11:35:43;9.70;99.90
9305;DHT22;4690;52.422;13.486;2024-03-08T11:38:11;10.20;99.90
9305;DHT22;4690;52.422;13.486;2024-03-08T11:40:39;9.90;99.90
9305;DHT22;4690;52.422;13.486;2024-03-08T11:43:05;9.80;99.90
9305;DHT22;4690;52.422;13.486;2024-03-08T11:45:34;9.60;99.90
9305;DHT22;4690;52.422;13.486;2024-03-08T11:48:04;9.50;99.90
9305;DHT22;4690;52.422;13.486;2024-03-08T11:50:30;10.00;99.90
9305;DHT22;4690;52.422;13.486;2024-03-08T11:53:05;10.00;99.90
9305;DHT22;4690;52.422;13.486;2024-03-08T11:55:31;10.40;99.90
9305;DHT22;4690;52.422;13.486;2024-03-08T11:58:05;10.60;99.90
9305;DHT22;4690;52.422;13.486;2024-03-08T12:00:34;10.90;99.90
9305;DHT22;4690;52.422;13.486;2024-03-08T12:03:05;11.70;99.90
9305;DHT22;4690;52.422;13.486;2024-03-08T12:05:33;10.90;99.90
9305;DHT22;4690;52.422;13.486;2024-03-08T12:08:00;10.90;99.90
9305;DHT22;4690;52.422;13.486;2024-03-08T12:10:26;10.90;99.90
9305;DHT22;4690;52.422;13.486;2024-03-08T12:12:54;11.10;99.90
9305;DHT22;4690;52.422;13.486;2024-03-08T12:15:23;10.50;99.90
9305;DHT22;4690;52.422;13.486;2024-03-08T12:17:53;10.40;99.90
9305;DHT22;4690;52.422;13.486;2024-03-08T12:22:55;10.70;99.90
9305;DHT22;4690;52.422;13.486;2024-03-08T12:25:42;11.50;99.90
9305;DHT22;4690;52.422;13.486;2024-03-08T12:28:12;11.10;99.90
9305;DHT22;4690;52.422;13.486;2024-03-08T12:30:51;10.90;99.90
9305;DHT22;4690;52.422;13.486;2024-03-08T12:33:22;10.60;99.90
9305;DHT22;4690;52.422;13.486;2024-03-08T12:35:52;10.80;99.90
9305;DHT22;4690;52.422;13.486;2024-03-08T12:38:24;11.10;99.90
9305;DHT22;4690;52.422;13.486;2024-03-08T12:40:59;10.50;99.90
9305;DHT22;4690;52.422;13.486;2024-03-08T12:43:26;10.60;99.90
9305;DHT22;4690;52.422;13.486;2024-03-08T12:45:55;10.90;99.90
9305;DHT22;4690;52.422;13.486;2024-03-08T12:48:21;10.80;99.90
9305;DHT22;4690;52.422;13.486;2024-03-08T12:50:47;10.80;99.90
9305;DHT22;4690;52.422;13.486;2024-03-08T12:53:14;10.20;99.90
9305;DHT22;4690;52.422;13.486;2024-03-08T12:55:39;9.90;99.90
9305;DHT22;4690;52.422;13.486;2024-03-08T12:58:06;10.00;99.90
9305;DHT22;4690;52.422;13.486;2024-03-08T13:00:34;10.00;99.90
9305;DHT22;4690;52.422;13.486;2024-03-08T13:03:02;10.40;99.90
9305;DHT22;4690;52.422;13.486;2024-03-08T13:05:28;10.80;99.90
9305;DHT22;4690;52.422;13.486;2024-03-08T13:07:55;10.80;99.90
9305;DHT22;4690;52.422;13.486;2024-03-08T13:10:22;10.80;99.90
9305;DHT22;4690;52.422;13.486;2024-03-08T13:12:48;10.80;99.90
9305;DHT22;4690;52.422;13.486;2024-03-08T13:15:14;10.70;99.90
9305;DHT22;4690;52.422;13.486;2024-03-08T13:17:47;10.50;99.90
9305;DHT22;4690;52.422;13.486;2024-03-08T13:20:14;10.70;99.90
9305;DHT22;4690;52.422;13.486;2024-03-08T13:22:45;10.60;99.90
9305;DHT22;4690;52.422;13.486;2024-03-08T13:25:12;10.60;99.90
9305;DHT22;4690;52.422;13.486;2024-03-08T13:27:42;10.90;99.90
9305;DHT22;4690;52.422;13.486;2024-03-08T13:30:09;11.00;99.90
9305;DHT22;4690;52.422;13.486;2024-03-08T13:32:39;11.00;99.90
9305;DHT22;4690;52.422;13.486;2024-03-08T13:35:09;11.00;99.90
9305;DHT22;4690;52.422;13.486;2024-03-08T13:37:41;10.90;99.90
9305;DHT22;4690;52.422;13.486;2024-03-08T13:40:09;10.80;99.90
9305;DHT22;4690;52.422;13.486;2024-03-08T13:42:44;11.00;99.90
9305;DHT22;4690;52.422;13.486;2024-03-08T13:45:10;10.90;99.90
9305;DHT22;4690;52.422;13.486;2024-03-08T13:47:37;10.70;99.90
9305;DHT22;4690;52.422;13.486;2024-03-08T13:50:06;10.80;99.90
9305;DHT22;4690;52.422;13.486;2024-03-08T13:52:33;10.60;99.90
9305;DHT22;4690;52.422;13.486;2024-03-08T13:55:00;10.70;99.90
9305;DHT22;4690;52.422;13.486;2024-03-08T13:57:26;11.00;99.90
9305;DHT22;4690;52.422;13.486;2024-03-08T13:59:55;10.70;99.90
9305;DHT22;4690;52.422;13.486;2024-03-08T14:02:20;10.40;99.90
9305;DHT22;4690;52.422;13.486;2024-03-08T14:04:48;10.60;99.90
9305;DHT22;4690;52.422;13.486;2024-03-08T14:07:15;10.40;99.90
9305;DHT22;4690;52.422;13.486;2024-03-08T14:09:41;10.40;99.90
9305;DHT22;4690;52.422;13.486;2024-03-08T14:12:09;10.30;99.90
9305;DHT22;4690;52.422;13.486;2024-03-08T14:14:35;10.10;99.90
9305;DHT22;4690;52.422;13.486;2024-03-08T14:17:01;10.50;99.90
9305;DHT22;4690;52.422;13.486;2024-03-08T14:19:28;10.60;99.90
9305;DHT22;4690;52.422;13.486;2024-03-08T14:21:56;10.80;99.90
9305;DHT22;4690;52.422;13.486;2024-03-08T14:24:24;10.70;99.90
9305;DHT22;4690;52.422;13.486;2024-03-08T14:26:50;10.50;99.90
9305;DHT22;4690;52.422;13.486;2024-03-08T14:29:16;10.50;99.90
9305;DHT22;4690;52.422;13.486;2024-03-08T14:31:44;10.30;99.90
9305;DHT22;4690;52.422;13.486;2024-03-08T14:34:10;10.50;99.90
9305;DHT22;4690;52.422;13.486;2024-03-08T14:36:36;10.70;99.90
9305;DHT22;4690;52.422;13.486;2024-03-08T14:39:03;10.50;99.90
9305;DHT22;4690;52.422;13.486;2024-03-08T14:41:29;10.60;99.90
9305;DHT22;4690;52.422;13.486;2024-03-08T14:43:55;10.20;99.90
9305;DHT22;4690;52.422;13.486;2024-03-08T14:46:22;10.10;99.90
9305;DHT22;4690;52.422;13.486;2024-03-08T14:48:51;10.20;99.90
9305;DHT22;4690;52.422;13.486;2024-03-08T14:51:19;10.10;99.90
9305;DHT22;4690;52.422;13.486;2024-03-08T14:53:48;10.00;99.90
9305;DHT22;4690;52.422;13.486;2024-03-08T14:56:15;9.90;99.90
9305;DHT22;4690;52.422;13.486;2024-03-08T14:58:45;9.90;99.90
9305;DHT22;4690;52.422;13.486;2024-03-08T15:01:15;10.00;99.90
9305;DHT22;4690;52.422;13.486;2024-03-08T15:03:41;9.90;99.90
9305;DHT22;4690;52.422;13.486;2024-03-08T15:06:10;10.00;99.90
9305;DHT22;4690;52.422;13.486;2024-03-08T15:08:38;9.90;99.90
9305;DHT22;4690;52.422;13.486;2024-03-08T15:11:05;10.10;99.90
9305;DHT22;4690;52.422;13.486;2024-03-08T15:13:32;9.90;99.90
9305;DHT22;4690;52.422;13.486;2024-03-08T15:16:07;9.90;99.90
9305;DHT22;4690;52.422;13.486;2024-03-08T15:18:35;9.80;99.90
9305;DHT22;4690;52.422;13.486;2024-03-08T15:21:05;9.70;99.90
9305;DHT22;4690;52.422;13.486;2024-03-08T15:23:38;9.90;99.90
9305;DHT22;4690;52.422;13.486;2024-03-08T15:26:09;9.80;99.90
9305;DHT22;4690;52.422;13.486;2024-03-08T15:28:35;9.90;99.90
9305;DHT22;4690;52.422;13.486;2024-03-08T15:31:05;9.80;99.90
9305;DHT22;4690;52.422;13.486;2024-03-08T15:33:35;9.80;99.90
9305;DHT22;4690;52.422;13.486;2024-03-08T15:36:14;9.80;99.90
9305;DHT22;4690;52.422;13.486;2024-03-08T15:38:42;9.70;99.90
9305;DHT22;4690;52.422;13.486;2024-03-08T15:41:09;9.60;99.90
9305;DHT22;4690;52.422;13.486;2024-03-08T15:43:39;9.60;99.90
9305;DHT22;4690;52.422;13.486;2024-03-08T15:46:06;9.60;99.90
9305;DHT22;4690;52.422;13.486;2024-03-08T15:48:33;9.60;99.90
9305;DHT22;4690;52.422;13.486;2024-03-08T15:51:01;9.60;99.90
9305;DHT22;4690;52.422;13.486;2024-03-08T15:53:28;9.60;99.90
9305;DHT22;4690;52.422;13.486;2024-03-08T15:55:58;9.50;99.90
9305;DHT22;4690;52.422;13.486;2024-03-08T15:58:24;9.30;99.90
9305;DHT22;4690;52.422;13.486;2024-03-08T16:00:51;9.20;99.90
9305;DHT22;4690;52.422;13.486;2024-03-08T16:03:18;9.10;99.90
9305;DHT22;4690;52.422;13.486;2024-03-08T16:05:46;9.00;99.90
9305;DHT22;4690;52.422;13.486;2024-03-08T16:08:16;8.90;99.90
9305;DHT22;4690;52.422;13.486;2024-03-08T16:10:48;8.90;99.90
9305;DHT22;4690;52.422;13.486;2024-03-08T16:13:22;8.90;99.90